METAR Data
IDs: Format: Raw Decoded Include TAF

Data at: 0143 UTC 29 Nov 2020

METAR for:KMCW (Mason City Muni, IA, US)
Text:KMCW 290053Z AUTO 24010KT 10SM CLR 07/02 A2995 RMK AO2 SLP147 T00670017 $
Temperature: 6.7°C ( 44°F)
Dewpoint: 1.7°C ( 35°F) [RH = 70%]
Pressure (altimeter):29.95 inches Hg (1014.3 mb) [Sea level pressure: 1014.7 mb]
Winds:from the WSW (240 degrees) at 12 MPH (10 knots; 5.1 m/s)
Visibility:10 or more sm (16+ km)
Ceiling:at least 12,000 feet AGL
Clouds:sky clear below 12,000 feet AGL
QC Flag:automated observation with no human augmentation; SOME DATA ABOVE MAY BE INACCURATE!!!"$" is an indication the sensor requires maintenance.